createdAt,value
2016-04-29T00:00:43.005Z,72.42
2016-04-29T00:01:43.008Z,72.42
2016-04-29T00:02:42.994Z,72.71
2016-04-29T00:03:42.997Z,73.08
2016-04-29T00:04:43.000Z,73.37
2016-04-29T00:05:42.986Z,73.08
2016-04-29T00:06:42.989Z,73.27
2016-04-29T00:07:42.991Z,73.27
2016-04-29T00:08:42.994Z,73.56
2016-04-29T00:09:42.997Z,73.84
2016-04-29T00:10:42.985Z,73.94
2016-04-29T00:11:43.003Z,73.18
2016-04-29T00:12:43.004Z,73.94
2016-04-29T00:13:43.007Z,73.37
2016-04-29T00:14:43.940Z,73.46
2016-04-29T00:15:43.092Z,73.37
2016-04-29T00:16:43.135Z,73.37
2016-04-29T00:17:43.161Z,73.37
2016-04-29T00:18:43.211Z,73.37
2016-04-29T00:19:43.228Z,73.56
2016-04-29T00:20:43.228Z,73.84
2016-04-29T00:21:43.246Z,73.75
2016-04-29T00:22:43.247Z,73.94
2016-04-29T00:23:43.276Z,73.84
2016-04-29T00:24:43.284Z,73.65
2016-04-29T00:25:43.276Z,74.79
2016-04-29T00:26:43.284Z,74.32
2016-04-29T00:27:43.291Z,74.22
2016-04-29T00:28:43.298Z,74.41
2016-04-29T00:29:43.318Z,74.56
2016-04-29T00:30:43.728Z,74.95
2016-04-29T00:31:43.312Z,74.66
2016-04-29T00:32:43.316Z,74.47
2016-04-29T00:33:43.305Z,74.95
2016-04-29T00:34:43.308Z,74.75
2016-04-29T00:35:43.312Z,74.95
2016-04-29T00:36:43.299Z,75.04
2016-04-29T00:37:43.302Z,75.13
2016-04-29T00:38:43.306Z,74.85
2016-04-29T00:39:43.326Z,75.51
2016-04-29T00:40:43.312Z,75.32
2016-04-29T00:41:43.300Z,75.51
2016-04-29T00:42:43.303Z,76.08
2016-04-29T00:43:43.306Z,75.98
2016-04-29T18:19:15.234Z,39.86
2016-04-29T18:20:15.378Z,40.12
2016-04-29T18:21:15.350Z,40.6
2016-04-29T18:22:15.338Z,40.68
2016-04-29T18:23:15.356Z,40.87
2016-04-29T18:24:15.358Z,41.06
2016-04-29T18:25:15.377Z,41.16
2016-04-29T22:35:32.106Z,76.68
2016-04-29T22:36:32.108Z,76.68
2016-04-29T22:37:32.095Z,76.97
2016-04-29T22:38:31.942Z,77.25
2016-04-29T22:39:32.101Z,77.16
2016-04-29T22:40:32.104Z,77.16
2016-04-29T22:41:32.107Z,77.16
2016-04-29T22:42:32.109Z,77.16
2016-04-29T22:43:32.095Z,77.54
2016-04-29T22:44:32.114Z,77.45
2016-04-29T22:45:32.100Z,77.16
2016-04-29T22:46:31.932Z,77.35
2016-04-29T22:47:32.107Z,77.83
2016-04-29T22:48:32.203Z,77.83
2016-04-29T22:49:32.096Z,77.54
2016-04-29T22:50:32.099Z,77.73
2016-04-29T22:51:32.102Z,77.64
2016-04-29T22:52:31.948Z,78.2
2016-04-29T22:53:32.107Z,78.67
2016-04-29T22:54:32.111Z,78.49
2016-04-29T22:55:32.113Z,78.49
2016-04-29T22:56:32.099Z,78.58
2016-04-29T22:57:32.088Z,78.96
2016-04-29T22:58:32.090Z,79.06
2016-04-29T22:59:32.108Z,78.96
2016-04-29T23:00:32.111Z,79.15
2016-04-29T23:01:32.098Z,79.25
2016-04-29T23:02:32.100Z,79.25
2016-04-29T23:03:32.103Z,78.77
2016-04-29T23:04:32.106Z,79.15
2016-04-29T23:05:32.109Z,79.25
2016-04-29T23:06:32.096Z,78.96
2016-04-29T23:07:32.098Z,78.87
2016-04-29T23:08:32.100Z,79.63
2016-04-29T23:09:32.104Z,79.58
2016-04-29T23:10:32.107Z,79.49
2016-04-29T23:11:31.953Z,79.72
2016-04-29T23:12:31.940Z,79.82
2016-04-29T23:13:32.099Z,79.82
2016-04-29T23:14:32.101Z,79.25
2016-04-29T23:15:31.948Z,79.82
2016-04-29T23:16:32.092Z,79.91
2016-04-29T23:17:32.109Z,79.91
2016-04-29T23:18:32.112Z,79.87
2016-04-29T23:19:32.099Z,79.58
2016-04-29T23:20:32.102Z,79.68
2016-04-29T23:21:32.089Z,80.06
2016-04-29T23:22:32.091Z,80.34
2016-04-29T23:23:32.095Z,80.34
2016-04-29T23:24:31.941Z,80.25
2016-04-29T23:25:32.099Z,80.06
2016-04-29T23:26:32.102Z,80.34
2016-04-29T23:27:32.105Z,80.15
2016-04-29T23:28:31.952Z,80.44
2016-04-29T23:29:32.111Z,80.72
2016-04-29T23:30:32.097Z,80.91
2016-04-29T23:31:32.100Z,80.82
2016-04-29T23:32:31.947Z,81.2
2016-04-29T23:33:32.793Z,80.91
2016-04-29T23:34:32.108Z,80.53
2016-04-29T23:35:32.096Z,80.82
2016-04-29T23:36:32.098Z,80.82
2016-04-29T23:37:32.101Z,80.72
2016-04-29T23:38:32.103Z,80.72
2016-04-29T23:39:32.090Z,80.91
2016-04-29T23:40:32.093Z,80.91
2016-04-29T23:41:32.111Z,80.72
2016-04-29T23:42:32.098Z,80.72
2016-04-29T23:43:32.101Z,80.82
2016-04-29T23:44:32.104Z,81.01
2016-04-29T23:45:32.106Z,81.29
2016-04-29T23:46:32.094Z,81.38
2016-04-29T23:47:32.112Z,81.29
2016-04-29T23:48:32.100Z,81.2
2016-04-29T23:49:32.103Z,81.38
2016-04-29T23:50:32.105Z,81.48
2016-04-29T23:51:32.108Z,81.95
2016-04-29T23:52:32.094Z,81.76
2016-04-29T23:53:32.097Z,81.48
2016-04-29T23:54:32.100Z,82.05
2016-04-29T23:55:32.102Z,82.14
2016-04-29T23:56:31.949Z,82.05
2016-04-29T23:57:32.091Z,82.14
2016-04-29T23:58:32.094Z,82.24
2016-04-29T23:59:32.097Z,82.05
